Time;durP1;ratioP1;P1;durP2;ratioP2;P2;SDS_P1;SDS_P2;PMS_P1;PMS_P2;Temp;Humidity;BMP_temperature;BMP_pressure;BME280_temperature;BME280_humidity;BME280_pressure;Samples;Min_cycle;Max_cycle;Signal;HPM_P1;HPM_P2
2022/06/04 00:02:12;;;;;;;660.45;626.22;;;17.20;99.90;;;17.25;100.00;100748.84;5035708;28;20213;-69
2022/06/04 00:04:40;;;;;;;686.15;650.30;;;17.20;99.90;;;17.23;100.00;100732.84;5041096;28;20229;-71
2022/06/04 00:07:09;;;;;;;774.42;733.15;;;17.20;99.90;;;17.18;100.00;100733.81;5057652;28;20216;-71
2022/06/04 00:15:28;;;;;;;821.75;774.95;;;17.10;99.90;;;17.14;100.00;100745.44;5042452;28;20221;-71
2022/06/04 00:15:31;;;;;;;805.83;760.60;;;17.10;99.90;;;16.87;100.00;100760.88;5067391;28;20660;-69
2022/06/04 00:18:00;;;;;;;788.95;745.70;;;17.00;99.90;;;17.01;100.00;100771.41;5045349;28;20197;-68
2022/06/04 00:20:28;;;;;;;798.30;753.72;;;17.00;99.90;;;16.96;100.00;100770.59;5075684;28;20234;-72
2022/06/04 00:23:03;;;;;;;780.50;738.15;;;17.00;99.90;;;16.78;100.00;100779.66;5066816;28;20216;-72
2022/06/04 00:25:34;;;;;;;781.60;739.05;;;17.00;99.90;;;16.52;100.00;100777.22;5084183;28;20204;-68
2022/06/04 00:28:07;;;;;;;785.40;742.42;;;16.80;99.90;;;16.76;100.00;100791.28;5052822;28;20204;-69
2022/06/04 00:30:36;;;;;;;780.22;737.47;;;16.80;99.90;;;16.82;100.00;100797.44;5037938;28;20233;-71
2022/06/04 00:33:04;;;;;;;775.38;732.65;;;16.80;99.90;;;16.85;100.00;100789.38;5063276;28;20212;-69
2022/06/04 00:35:33;;;;;;;759.97;719.00;;;16.80;99.90;;;16.80;100.00;100795.69;5047850;28;20197;-72
2022/06/04 00:38:04;;;;;;;759.60;718.30;;;16.80;99.90;;;16.78;100.00;100793.03;5080236;28;20665;-69
2022/06/04 00:40:54;;;;;;;765.75;723.67;;;16.80;99.90;;;16.66;100.00;100798.50;5044181;28;20234;-69
2022/06/04 00:43:22;;;;;;;757.55;715.58;;;16.80;99.90;;;16.55;100.00;100795.88;5060905;28;20209;-72
2022/06/04 00:46:40;;;;;;;751.13;709.97;;;16.70;99.90;;;16.54;100.00;100807.47;5024926;28;20590;-69
2022/06/04 00:49:13;;;;;;;753.90;711.85;;;16.70;99.90;;;16.39;100.00;100804.06;5075679;28;20812;-69
2022/06/04 00:51:46;;;;;;;744.53;704.97;;;16.50;99.90;;;16.26;100.00;100816.63;5048825;28;20611;-69
2022/06/04 00:54:15;;;;;;;743.90;704.17;;;16.50;99.90;;;16.08;100.00;100825.66;5048212;28;20208;-72
2022/06/04 00:56:52;;;;;;;746.88;707.15;;;16.40;99.90;;;16.15;100.00;100848.72;5069094;28;20208;-69
2022/06/04 00:59:42;;;;;;;750.15;709.13;;;16.30;99.90;;;16.20;100.00;100844.25;5082063;28;20209;-70
2022/06/04 01:02:31;;;;;;;739.92;699.40;;;16.30;99.90;;;16.10;100.00;100855.88;5046172;28;20212;-69
2022/06/04 01:05:09;;;;;;;729.17;690.80;;;16.30;99.90;;;15.94;100.00;100864.88;5083173;28;20577;-69
2022/06/04 01:08:09;;;;;;;735.13;695.67;;;16.20;99.90;;;16.20;100.00;100868.25;5076068;28;20668;-70
2022/06/04 01:10:55;;;;;;;747.25;705.03;;;16.20;99.90;;;16.32;100.00;100865.50;5077432;28;20240;-69
2022/06/04 01:13:58;;;;;;;743.75;702.00;;;16.20;99.90;;;16.36;100.00;100849.47;5065611;28;20201;-69
2022/06/04 01:16:55;;;;;;;714.25;676.15;;;16.20;99.90;;;16.33;100.00;100855.72;5042712;28;20205;-70
2022/06/04 01:19:41;;;;;;;740.90;699.50;;;16.30;99.90;;;16.34;100.00;100830.78;5057740;28;20471;-69
2022/06/04 01:22:24;;;;;;;731.03;692.28;;;16.30;99.90;;;16.50;100.00;100832.44;5099809;28;20208;-69
2022/06/04 01:25:27;;;;;;;720.35;681.15;;;16.40;99.90;;;16.42;100.00;100831.59;5051199;28;20209;-72
2022/06/04 01:28:12;;;;;;;732.28;691.40;;;16.40;99.90;;;16.42;100.00;100849.41;5061836;28;20212;-69
2022/06/04 01:30:49;;;;;;;728.92;689.58;;;16.30;99.90;;;16.40;100.00;100849.41;5044082;28;20234;-68
2022/06/04 01:33:42;;;;;;;745.78;703.25;;;16.30;99.90;;;16.44;100.00;100826.25;5031882;28;20205;-71
2022/06/04 01:36:18;;;;;;;737.58;697.00;;;16.30;99.90;;;16.40;100.00;100836.06;5043567;28;20197;-69
2022/06/04 01:38:51;;;;;;;749.15;707.22;;;16.30;99.90;;;16.37;100.00;100824.53;5023796;28;20208;-70
2022/06/04 01:41:26;;;;;;;745.60;703.97;;;16.30;99.90;;;16.15;100.00;100832.72;5049300;28;20234;-70
2022/06/04 01:44:05;;;;;;;746.08;704.58;;;16.20;99.90;;;16.06;100.00;100835.44;5046099;28;20204;-70
2022/06/04 01:46:42;;;;;;;755.95;713.30;;;16.20;99.90;;;16.00;100.00;100843.50;5047595;28;20670;-72
2022/06/04 01:49:22;;;;;;;716.70;678.25;;;16.10;99.90;;;15.91;100.00;100851.56;5046865;28;20207;-68
2022/06/04 01:51:57;;;;;;;719.88;679.67;;;16.10;99.90;;;15.88;100.00;100867.59;5045604;28;20239;-69
2022/06/04 01:54:34;;;;;;;711.58;673.33;;;16.10;99.90;;;15.77;100.00;100872.97;5038090;28;20204;-72
2022/06/04 01:57:29;;;;;;;716.25;677.88;;;15.50;99.90;;;15.76;100.00;100886.31;5049252;28;20193;-69
2022/06/04 02:00:31;;;;;;;719.17;679.25;;;15.90;99.90;;;15.83;100.00;100904.06;5058914;28;20224;-69
2022/06/04 02:03:17;;;;;;;689.15;654.83;;;15.90;99.90;;;15.81;100.00;100890.72;5062887;28;20276;-69
2022/06/04 02:05:58;;;;;;;716.30;676.95;;;15.90;99.90;;;15.80;100.00;100888.06;5048641;28;20303;-72
2022/06/04 02:08:34;;;;;;;716.55;677.00;;;15.90;99.90;;;15.72;100.00;100888.09;5047195;28;20209;-72
2022/06/04 02:11:15;;;;;;;729.15;688.90;;;15.90;99.90;;;15.74;100.00;100896.09;5044566;28;20224;-69
2022/06/04 02:13:47;;;;;;;735.35;693.53;;;15.90;99.90;;;15.73;100.00;100889.88;5060128;28;20205;-69
2022/06/04 02:16:51;;;;;;;714.83;676.55;;;15.90;99.90;;;15.73;100.00;100883.66;5041369;28;20213;-69
2022/06/04 02:19:19;;;;;;;718.08;676.95;;;15.90;99.90;;;15.75;100.00;100877.44;5072957;28;20203;-71
2022/06/04 02:21:47;;;;;;;713.67;675.13;;;15.80;99.90;;;15.71;100.00;100874.78;5063835;28;20228;-71
2022/06/04 02:24:15;;;;;;;716.80;678.05;;;15.80;99.90;;;15.67;100.00;100888.13;5064591;28;20220;-69
2022/06/04 02:26:42;;;;;;;707.10;669.38;;;15.80;99.90;;;15.62;100.00;100887.28;5060097;28;20216;-72
2022/06/04 02:29:11;;;;;;;728.45;687.47;;;15.80;99.90;;;15.56;100.00;100903.22;5060020;28;20209;-70
2022/06/04 02:31:59;;;;;;;732.08;690.97;;;15.70;99.90;;;15.44;100.00;100923.69;5045678;28;20712;-69
2022/06/04 02:34:57;;;;;;;709.55;671.22;;;15.70;99.90;;;15.33;100.00;100923.72;5063543;28;20208;-69
2022/06/04 02:37:57;;;;;;;707.97;668.92;;;15.60;99.90;;;15.22;100.00;100933.53;5074280;28;20212;-69
2022/06/04 02:40:28;;;;;;;696.30;658.22;;;15.50;99.90;;;15.11;100.00;100924.66;5063924;28;20236;-69
2022/06/04 02:43:09;;;;;;;715.25;674.75;;;15.50;99.90;;;15.18;100.00;100923.78;5062154;28;20201;-72
2022/06/04 02:45:49;;;;;;;710.50;671.67;;;15.40;99.90;;;15.20;100.00;100922.88;5046311;28;20204;-69
2022/06/04 02:48:33;;;;;;;715.90;675.92;;;15.40;99.90;;;15.06;100.00;100924.69;5042397;28;20202;-70
2022/06/04 02:51:10;;;;;;;696.03;657.20;;;15.30;99.90;;;15.17;100.00;100930.88;5078165;28;20225;-72
2022/06/04 02:53:41;;;;;;;711.88;671.42;;;15.30;99.90;;;15.19;100.00;100925.53;5063108;28;20202;-72
2022/06/04 02:56:15;;;;;;;710.45;671.28;;;15.30;99.90;;;15.07;100.00;100925.56;5044447;28;20205;-73
2022/06/04 02:58:49;;;;;;;714.42;674.10;;;15.30;99.90;;;15.13;100.00;100934.44;5061670;28;20205;-71
2022/06/04 03:01:18;;;;;;;709.67;669.45;;;15.20;99.90;;;15.12;100.00;100919.34;5062145;28;20236;-72
2022/06/04 03:03:46;;;;;;;717.00;676.38;;;15.20;99.90;;;15.08;100.00;100925.56;5044709;28;20220;-69
2022/06/04 03:06:28;;;;;;;704.13;665.22;;;15.20;99.90;;;14.93;100.00;100931.78;5059967;28;20205;-69
2022/06/04 03:08:55;;;;;;;716.67;675.80;;;15.10;99.90;;;14.99;100.00;100921.13;5058066;28;20225;-72
2022/06/04 03:11:23;;;;;;;725.65;682.42;;;15.10;99.90;;;15.18;100.00;100919.34;5044446;28;20236;-69
2022/06/04 03:13:52;;;;;;;735.22;691.10;;;15.10;99.90;;;15.19;100.00;100918.44;5026110;28;20205;-71
2022/06/04 03:16:20;;;;;;;719.17;677.03;;;15.20;99.90;;;14.90;100.00;100910.50;5029808;28;20676;-70
2022/06/04 03:18:48;;;;;;;724.95;681.83;;;15.10;99.90;;;14.86;100.00;100916.72;5063311;28;20204;-70
2022/06/04 03:21:16;;;;;;;708.17;667.97;;;15.10;99.90;;;14.73;100.00;100928.25;5065179;28;20221;-72
2022/06/04 03:23:44;;;;;;;706.53;666.92;;;15.10;99.90;;;14.62;100.00;100948.66;5078315;28;20206;-69
2022/06/04 03:26:12;;;;;;;693.70;654.58;;;15.00;99.90;;;14.77;100.00;100954.00;5062101;28;20202;-69
2022/06/04 03:28:40;;;;;;;685.83;647.00;;;14.90;99.90;;;14.82;100.00;100965.53;5058836;28;20206;-71
2022/06/04 03:31:08;;;;;;;704.50;663.08;;;14.90;99.90;;;14.99;100.00;100957.53;5048027;28;20232;-72
2022/06/04 03:33:50;;;;;;;703.95;662.95;;;15.00;99.90;;;14.99;100.00;100979.72;5079858;28;20205;-71
2022/06/04 03:36:22;;;;;;;700.22;658.80;;;15.00;99.90;;;15.00;100.00;100986.84;5039682;28;20201;-70
2022/06/04 03:38:50;;;;;;;702.90;661.90;;;15.00;99.90;;;14.93;100.00;100987.72;5079335;28;20209;-72
2022/06/04 03:41:18;;;;;;;700.65;659.70;;;15.00;99.90;;;14.84;100.00;101009.03;5049377;28;20229;-73
2022/06/04 03:43:51;;;;;;;712.75;668.70;;;14.90;99.90;;;14.84;100.00;101022.34;5058175;28;20217;-69
2022/06/04 03:46:25;;;;;;;703.92;661.83;;;15.70;99.90;;;14.95;100.00;101019.69;5080470;28;20205;-69
2022/06/04 03:48:55;;;;;;;712.60;668.78;;;14.90;99.90;;;14.97;100.00;101021.47;5045901;28;20220;-70
2022/06/04 03:51:26;;;;;;;702.88;661.90;;;15.00;99.90;;;14.98;100.00;101023.22;5042318;28;20230;-72
2022/06/04 03:53:55;;;;;;;711.88;669.28;;;15.00;99.90;;;14.89;100.00;101031.22;5073311;28;20208;-68
2022/06/04 03:56:24;;;;;;;704.33;662.30;;;15.00;99.90;;;14.87;100.00;101043.66;5058664;28;20197;-72
2022/06/04 03:58:52;;;;;;;702.08;660.20;;;15.00;99.90;;;14.83;100.00;101056.97;5063074;28;20201;-70
2022/06/04 04:01:29;;;;;;;690.05;651.25;;;15.00;99.90;;;14.80;100.00;101057.84;5061079;28;20232;-69
2022/06/04 04:03:59;;;;;;;686.70;648.10;;;15.00;99.90;;;14.82;100.00;101081.81;5059347;28;20213;-70
2022/06/04 04:06:32;;;;;;;694.75;654.00;;;15.00;99.90;;;14.91;100.00;101095.13;5054255;28;20213;-69
2022/06/04 04:09:00;;;;;;;690.15;650.00;;;14.90;99.90;;;14.95;100.00;101083.59;5051675;28;20210;-69
2022/06/04 04:11:28;;;;;;;688.03;648.80;;;15.00;99.90;;;15.07;100.00;101082.72;5050793;28;20222;-70
2022/06/04 04:13:57;;;;;;;688.63;649.40;;;15.10;99.90;;;15.09;100.00;101065.88;5066548;28;20189;-72
2022/06/04 04:16:25;;;;;;;687.88;648.78;;;15.10;99.90;;;15.16;100.00;101062.31;5067704;28;20207;-71
2022/06/04 04:18:53;;;;;;;689.53;649.85;;;15.10;99.90;;;15.23;100.00;101066.75;5052490;28;20210;-72
2022/06/04 04:21:22;;;;;;;682.72;644.78;;;15.10;99.90;;;15.32;100.00;101072.09;5051921;28;20229;-69
2022/06/04 04:23:50;;;;;;;692.85;652.65;;;15.20;99.90;;;15.36;100.00;101065.88;5068686;28;20204;-69
2022/06/04 04:26:18;;;;;;;690.97;651.42;;;15.30;99.90;;;15.42;100.00;101069.41;5076506;28;20202;-69
2022/06/04 04:28:46;;;;;;;699.72;658.85;;;15.30;99.90;;;15.44;100.00;101075.63;5069524;28;20212;-70
2022/06/04 04:31:19;;;;;;;706.03;664.60;;;15.40;99.90;;;15.55;100.00;101061.41;5057657;28;20698;-70
2022/06/04 04:33:48;;;;;;;704.35;663.22;;;15.50;99.90;;;15.70;100.00;101075.66;5051416;28;20202;-69
2022/06/04 04:36:16;;;;;;;694.75;655.08;;;15.50;99.90;;;15.75;100.00;101076.53;5083459;28;20215;-68
2022/06/04 04:38:44;;;;;;;711.67;669.72;;;15.60;99.90;;;15.79;100.00;101067.66;5050072;28;20210;-68
2022/06/04 04:41:14;;;;;;;714.30;673.17;;;15.70;99.90;;;15.88;100.00;101068.50;5071608;28;20225;-69
2022/06/04 04:43:43;;;;;;;733.30;687.67;;;15.80;99.90;;;16.03;100.00;101050.69;5090263;28;20586;-72
2022/06/04 04:46:13;;;;;;;718.88;677.20;;;15.80;99.90;;;16.11;100.00;101052.44;5062968;28;20209;-69
2022/06/04 04:48:44;;;;;;;725.72;683.42;;;16.00;99.90;;;16.30;100.00;101062.13;5041175;28;20201;-68
2022/06/04 04:51:20;;;;;;;713.83;674.22;;;16.10;99.90;;;16.41;100.00;101066.53;5068000;28;20230;-68
2022/06/04 04:53:49;;;;;;;723.78;682.97;;;16.10;99.90;;;16.52;100.00;101057.56;5050284;28;20201;-68
2022/06/04 04:56:22;;;;;;;727.60;685.05;;;16.30;99.90;;;16.70;100.00;101059.28;5086907;28;20194;-68
2022/06/04 04:58:50;;;;;;;733.50;690.78;;;16.20;99.90;;;16.80;100.00;101049.44;5051237;28;20206;-68
2022/06/04 05:01:24;;;;;;;741.90;698.33;;;16.40;99.90;;;16.89;100.00;101052.94;5085795;28;20583;-69
2022/06/04 05:03:54;;;;;;;756.38;712.17;;;16.40;99.90;;;17.00;100.00;101043.97;5047367;28;20221;-68
2022/06/04 05:06:30;;;;;;;756.08;711.60;;;16.60;99.90;;;17.22;100.00;101045.59;5040105;28;20204;-69
2022/06/04 05:08:57;;;;;;;765.90;720.03;;;16.80;99.90;;;17.49;100.00;101066.72;5067393;28;20220;-69
2022/06/04 05:11:30;;;;;;;761.90;716.90;;;16.80;99.90;;;17.55;100.00;101064.00;5057415;28;20221;-68
2022/06/04 05:14:00;;;;;;;780.85;734.05;;;17.00;99.90;;;17.63;100.00;101071.06;5065375;28;20208;-69
2022/06/04 05:16:36;;;;;;;773.20;729.15;;;17.20;99.90;;;17.71;100.00;101080.81;5053307;28;20212;-68
2022/06/04 05:19:05;;;;;;;777.63;733.03;;;17.30;99.90;;;17.64;100.00;101072.81;5084584;28;20197;-70
2022/06/04 05:21:48;;;;;;;794.38;747.53;;;17.40;99.90;;;17.69;100.00;101060.31;5064678;28;20226;-71
2022/06/04 05:24:31;;;;;;;800.47;752.30;;;17.40;99.90;;;17.69;100.00;101041.59;5080248;28;20205;-68
2022/06/04 05:27:00;;;;;;;789.25;743.92;;;17.50;99.90;;;17.77;100.00;101035.25;5032789;28;20205;-68
2022/06/04 05:29:29;;;;;;;806.75;759.50;;;17.50;99.90;;;17.89;100.00;101027.09;5044269;28;20197;-72
2022/06/04 05:31:57;;;;;;;797.10;752.42;;;17.60;99.90;;;17.88;100.00;101024.44;5058548;28;20231;-68
2022/06/04 05:34:26;;;;;;;812.03;766.20;;;17.60;99.90;;;17.92;100.00;101020.81;5052165;28;20197;-68
2022/06/04 05:36:55;;;;;;;815.83;769.65;;;17.70;99.90;;;17.98;100.00;101034.13;5050437;28;20212;-69
2022/06/04 05:39:23;;;;;;;825.38;778.65;;;17.70;99.90;;;18.06;100.00;101029.56;5081343;28;20206;-69
2022/06/04 05:41:51;;;;;;;819.20;774.47;;;17.80;99.90;;;18.14;100.00;101018.78;5047360;28;20218;-70
2022/06/04 05:44:20;;;;;;;824.53;779.10;;;17.90;99.90;;;18.22;100.00;101016.91;5047562;28;20221;-67
2022/06/04 05:46:48;;;;;;;830.90;784.58;;;18.00;99.90;;;18.28;100.00;101011.47;5043019;28;20202;-68
2022/06/04 05:49:20;;;;;;;842.78;794.70;;;18.00;99.90;;;18.47;100.00;101025.50;5078258;28;20205;-67
2022/06/04 05:51:50;;;;;;;844.28;797.17;;;18.10;99.90;;;18.51;100.00;101021.88;5062535;28;20236;-67
2022/06/04 05:54:20;;;;;;;847.60;800.38;;;18.30;99.90;;;18.61;100.00;101022.63;5070789;28;20208;-72
2022/06/04 05:56:50;;;;;;;842.38;795.55;;;18.40;99.90;;;18.76;100.00;101022.44;5085689;28;20209;-68
2022/06/04 05:59:22;;;;;;;836.50;791.40;;;18.40;99.90;;;18.80;100.00;101035.75;5028650;28;20202;-68
2022/06/04 06:01:51;;;;;;;848.70;801.22;;;18.50;99.90;;;18.83;100.00;101019.63;5064167;28;20228;-71
2022/06/04 06:04:22;;;;;;;840.75;795.33;;;18.60;99.90;;;18.88;100.00;101024.94;5048495;28;20224;-67
2022/06/04 06:06:52;;;;;;;849.70;802.70;;;18.70;99.90;;;18.94;100.00;101023.94;5067471;28;20594;-71
2022/06/04 06:09:23;;;;;;;860.33;813.17;;;18.70;99.90;;;18.96;100.00;101016.75;5054523;28;20212;-68
2022/06/04 06:11:52;;;;;;;864.22;815.20;;;18.70;99.90;;;18.92;100.00;101002.53;5065727;28;20232;-69
2022/06/04 06:14:21;;;;;;;844.72;798.72;;;18.80;99.90;;;19.07;100.00;101017.47;5070390;28;20216;-68
2022/06/04 06:16:50;;;;;;;867.35;819.08;;;18.80;99.90;;;19.16;100.00;101018.19;5067151;28;20206;-71
2022/06/04 06:19:22;;;;;;;865.17;817.78;;;18.90;99.90;;;19.20;100.00;101019.03;5048965;28;20671;-68
2022/06/04 06:21:51;;;;;;;858.33;811.03;;;19.00;99.90;;;19.39;100.00;101033.00;5082599;28;20709;-69
2022/06/04 06:24:21;;;;;;;864.70;816.90;;;19.20;99.90;;;19.36;100.00;101009.81;5062485;28;20627;-71
2022/06/04 06:26:57;;;;;;;855.72;810.40;;;19.20;99.90;;;19.35;100.00;101015.19;5053833;28;20202;-71
2022/06/04 06:29:29;;;;;;;869.70;821.97;;;18.00;99.90;;;19.56;100.00;101028.28;5041999;28;20204;-68
2022/06/04 06:32:00;;;;;;;868.58;821.85;;;19.40;99.90;;;19.63;100.00;101015.66;5063952;28;20603;-69
2022/06/04 06:34:28;;;;;;;876.08;828.50;;;19.50;99.90;;;19.71;100.00;101016.38;5043009;28;20198;-69
2022/06/04 06:36:56;;;;;;;891.95;842.05;;;19.60;99.90;;;19.76;100.00;100988.53;5081545;28;20210;-71
2022/06/04 06:39:25;;;;;;;889.55;841.08;;;19.70;99.90;;;19.90;100.00;100984.69;5042981;28;20193;-69
2022/06/04 06:41:53;;;;;;;886.95;838.78;;;19.80;99.90;;;19.82;100.00;100976.78;5050913;28;20221;-68
2022/06/04 06:44:35;;;;;;;865.15;819.58;;;19.80;99.90;;;19.95;100.00;100985.47;5058776;28;20205;-69
2022/06/04 06:47:03;;;;;;;833.15;788.50;;;19.90;99.90;;;20.06;100.00;101003.13;5032787;28;20194;-68
2022/06/04 06:49:31;;;;;;;870.35;823.47;;;20.10;99.90;;;20.17;100.00;100989.47;5061972;28;20194;-69
2022/06/04 06:52:02;;;;;;;864.45;818.05;;;20.20;99.90;;;20.31;100.00;100982.00;5073439;28;20225;-69
2022/06/04 06:54:35;;;;;;;840.00;795.13;;;20.40;99.90;;;20.27;100.00;100964.19;5077190;28;20244;-70
2022/06/04 06:57:10;;;;;;;872.42;825.42;;;20.50;99.90;;;20.36;100.00;100960.41;5046095;28;20200;-68
2022/06/04 06:59:43;;;;;;;878.47;831.75;;;20.60;99.90;;;20.54;100.00;100978.81;5076534;28;20664;-71
2022/06/04 07:02:12;;;;;;;867.90;820.83;;;20.70;99.90;;;20.62;100.00;100981.34;5049056;28;20200;-69
2022/06/04 07:04:41;;;;;;;877.22;829.80;;;20.90;99.90;;;20.54;100.00;100970.75;5059620;28;20241;-71
2022/06/04 07:07:09;;;;;;;878.60;831.47;;;20.90;99.90;;;20.19;100.00;100954.53;5084439;28;20556;-69
2022/06/04 07:09:40;;;;;;;855.20;808.97;;;20.60;99.90;;;20.21;100.00;100964.31;5081856;28;20205;-70
2022/06/04 07:12:11;;;;;;;837.35;791.40;;;20.50;99.90;;;20.58;100.00;100991.28;5046818;28;20204;-73
2022/06/04 07:14:40;;;;;;;826.40;781.13;;;20.60;99.90;;;20.84;100.00;100982.63;5042461;28;20225;-70
2022/06/04 07:17:08;;;;;;;811.70;767.20;;;20.90;99.90;;;20.74;100.00;100972.97;5033420;28;20208;-68
2022/06/04 07:19:36;;;;;;;804.47;760.63;;;21.00;99.90;;;20.63;100.00;100966.97;5071247;28;20202;-69
2022/06/04 07:22:04;;;;;;;796.40;752.47;;;21.10;99.90;;;20.64;100.00;100948.13;5061777;28;20221;-68
2022/06/04 07:24:32;;;;;;;793.33;749.97;;;21.20;99.90;;;20.62;100.00;100928.47;5063391;28;20212;-68
2022/06/04 07:27:00;;;;;;;824.00;779.20;;;21.20;99.90;;;20.72;100.00;100913.00;5083732;28;20205;-69
2022/06/04 07:29:28;;;;;;;853.55;806.53;;;21.10;99.90;;;20.94;100.00;100926.81;5043037;28;20209;-70
2022/06/04 07:31:57;;;;;;;833.33;787.30;;;21.30;99.90;;;21.14;100.00;100932.56;5043218;28;20230;-69
2022/06/04 07:34:24;;;;;;;777.38;733.17;;;21.60;99.90;;;20.92;100.00;100885.63;5066290;28;20225;-69
2022/06/04 07:36:53;;;;;;;775.78;731.85;;;21.70;99.90;;;20.90;100.00;100903.63;5068140;28;20207;-69
2022/06/04 07:39:22;;;;;;;786.40;742.53;;;21.50;99.90;;;21.02;100.00;100896.09;5066607;28;20204;-70
2022/06/04 07:41:53;;;;;;;777.85;733.35;;;21.50;99.90;;;21.11;100.00;100908.44;5054118;28;20225;-71
2022/06/04 07:44:25;;;;;;;815.35;768.92;;;21.50;99.90;;;21.33;100.00;100908.75;5067638;28;20579;-70
2022/06/04 07:46:55;;;;;;;839.42;787.85;;;21.70;99.90;;;21.36;100.00;100895.22;5067126;28;20221;-69
2022/06/04 07:49:23;;;;;;;819.80;773.03;;;21.80;99.90;;;21.51;100.00;100908.25;5051389;28;20213;-70
2022/06/04 07:51:54;;;;;;;805.20;755.13;;;22.00;99.90;;;21.83;100.00;100918.06;5064820;28;20243;-71
2022/06/04 07:54:23;;;;;;;822.42;771.00;;;23.10;99.90;;;21.92;100.00;100909.72;5032074;28;20225;-70
2022/06/04 07:56:53;;;;;;;831.38;778.95;;;22.40;99.90;;;21.60;100.00;100862.22;5029341;28;20210;-70
2022/06/04 07:59:22;;;;;;;772.28;723.85;;;22.40;99.90;;;21.41;100.00;100858.31;5068454;28;20208;-71
2022/06/04 08:01:50;;;;;;;754.47;704.72;;;22.10;99.90;;;21.35;100.00;100853.97;5048567;28;20236;-71
2022/06/04 08:04:18;;;;;;;775.58;725.58;;;22.00;99.90;;;21.57;100.00;100877.56;5055490;28;20219;-69
2022/06/04 08:06:46;;;;;;;703.58;660.20;;;22.10;99.90;;;21.66;100.00;100880.88;5050983;28;20665;-69
2022/06/04 08:09:14;;;;;;;751.53;705.30;;;22.20;99.90;;;21.56;100.00;100852.47;5069308;28;20593;-69
2022/06/04 08:11:42;;;;;;;768.67;720.80;;;22.10;99.90;;;21.73;100.00;100874.38;5052699;28;20224;-69
2022/06/04 08:14:17;;;;;;;808.33;759.45;;;22.10;99.90;;;21.70;100.00;100855.63;5057816;28;20216;-69
2022/06/04 08:16:59;;;;;;;848.95;797.40;;;22.30;99.90;;;21.64;100.00;100863.00;5056892;28;20204;-70
2022/06/04 08:19:30;;;;;;;865.08;810.10;;;22.20;99.90;;;21.63;100.00;100863.94;5050971;28;20204;-69
2022/06/04 08:21:58;;;;;;;852.45;800.00;;;22.20;99.90;;;21.48;100.00;100841.06;5056630;28;20225;-73
2022/06/04 08:24:27;;;;;;;847.65;795.65;;;22.10;99.90;;;21.78;100.00;100873.38;5032351;28;20212;-70
2022/06/04 08:26:59;;;;;;;816.85;768.25;;;22.10;99.90;;;21.94;100.00;100878.25;5035533;28;20260;-71
2022/06/04 08:29:30;;;;;;;844.03;791.67;;;22.30;99.90;;;21.80;100.00;100875.09;5064931;28;20586;-72
2022/06/04 08:32:01;;;;;;;861.10;807.65;;;22.40;99.90;;;21.86;100.00;100882.09;5037278;28;20240;-68
2022/06/04 08:34:30;;;;;;;818.53;768.13;;;22.60;99.90;;;21.82;100.00;100858.88;5049205;28;20229;-70
2022/06/04 08:36:59;;;;;;;795.83;745.95;;;22.60;99.90;;;21.62;100.00;100846.03;5036643;28;20215;-71
2022/06/04 08:39:28;;;;;;;851.83;798.70;;;22.40;99.90;;;21.59;100.00;100821.91;5037073;28;20235;-71
2022/06/04 08:42:08;;;;;;;804.08;755.40;;;22.20;99.90;;;21.86;100.00;100856.06;5051250;28;20225;-70
2022/06/04 08:44:53;;;;;;;776.00;724.63;;;22.20;99.90;;;21.92;100.00;100850.47;5052270;28;20653;-71
2022/06/04 08:47:40;;;;;;;756.30;707.85;;;22.20;99.90;;;22.01;100.00;100869.03;5034533;28;20672;-71
2022/06/04 08:50:23;;;;;;;753.72;706.42;;;22.50;99.90;;;21.96;100.00;100862.03;5017619;28;20229;-70
2022/06/04 08:52:59;;;;;;;753.83;708.05;;;22.50;99.90;;;22.11;100.00;100852.66;5031985;28;20205;-69
2022/06/04 08:58:55;;;;;;;703.33;659.35;;;22.80;99.90;;;22.07;100.00;100846.44;5048717;28;20204;-72
2022/06/04 09:01:36;;;;;;;774.53;723.97;;;22.80;99.90;;;22.21;100.00;100852.31;5043349;28;20242;-70
2022/06/04 09:04:48;;;;;;;741.33;693.20;;;22.80;99.90;;;22.22;100.00;100829.81;5038553;28;20224;-69
2022/06/04 09:07:29;;;;;;;724.67;678.10;;;22.90;99.90;;;22.26;100.00;100827.91;5085301;28;20215;-72
2022/06/04 09:10:22;;;;;;;730.92;683.45;;;22.90;99.90;;;22.35;100.00;100827.63;5049381;28;20204;-71
2022/06/04 09:13:24;;;;;;;698.22;652.58;;;23.00;99.90;;;22.32;100.00;100833.97;5072582;28;20212;-70
2022/06/04 09:15:57;;;;;;;699.40;653.63;;;23.10;99.90;;;22.16;100.00;100816.56;5045882;28;20216;-72
2022/06/04 09:18:32;;;;;;;697.42;652.70;;;23.10;99.90;;;22.39;100.00;100836.47;5048860;28;21241;-74
2022/06/04 09:21:04;;;;;;;740.10;692.58;;;23.10;99.90;;;22.37;100.00;100841.03;5049039;28;20228;-69
2022/06/04 09:23:39;;;;;;;742.20;692.97;;;23.10;99.90;;;22.17;100.00;100844.38;5045486;28;20201;-72
2022/06/04 09:26:13;;;;;;;741.08;692.05;;;23.00;99.90;;;22.57;100.00;100854.72;5050325;28;20208;-70
2022/06/04 09:29:11;;;;;;;734.00;686.35;;;23.10;99.90;;;22.28;100.00;100820.66;5040245;28;20207;-69
2022/06/04 09:32:18;;;;;;;746.17;697.38;;;23.10;99.90;;;22.23;100.00;100819.94;5064118;28;20236;-73
2022/06/04 09:34:50;;;;;;;732.67;685.70;;;23.00;99.90;;;22.12;100.00;100812.19;5061625;28;20256;-67
2022/06/04 09:37:18;;;;;;;764.50;716.13;;;23.00;99.90;;;22.06;100.00;100822.25;5045210;28;20208;-67
2022/06/04 09:40:00;;;;;;;749.92;700.15;;;23.10;99.90;;;22.43;100.00;100836.31;5032976;28;20760;-69
2022/06/04 09:42:31;;;;;;;726.28;678.33;;;23.10;99.90;;;22.29;100.00;100814.34;5039015;28;20201;-67
2022/06/04 09:45:04;;;;;;;712.10;666.78;;;23.20;99.90;;;22.30;100.00;100819.69;5037485;28;20216;-68
2022/06/04 09:47:41;;;;;;;693.05;647.13;;;23.40;99.90;;;22.22;100.00;100834.34;5031274;28;20215;-70
2022/06/04 09:50:54;;;;;;;685.35;643.38;;;23.30;99.90;;;22.49;100.00;100844.19;5042550;28;20224;-70
2022/06/04 09:53:30;;;;;;;743.38;694.92;;;23.40;99.90;;;22.22;100.00;100824.44;4998743;28;20203;-70
2022/06/04 09:56:08;;;;;;;713.22;667.03;;;23.50;99.90;;;22.22;100.00;100804.69;5026881;28;20228;-68
2022/06/04 09:58:47;;;;;;;730.28;683.97;;;23.40;99.90;;;22.18;100.00;100811.13;5013619;28;20715;-70
2022/06/04 10:01:17;;;;;;;740.17;691.85;;;23.40;99.90;;;22.23;100.00;100826.19;5031704;28;20589;-70
2022/06/04 10:03:59;;;;;;;726.53;678.47;;;23.50;99.90;;;22.33;100.00;100816.88;5060788;28;20258;-70
2022/06/04 10:06:28;;;;;;;725.53;681.33;;;25.10;99.90;;;22.50;100.00;100815.44;5062183;28;20205;-66
2022/06/04 10:11:56;;;;;;;706.30;660.38;;;23.50;99.90;;;22.60;100.00;100823.16;5047130;28;20236;-64
2022/06/04 10:14:31;;;;;;;703.45;657.78;;;23.50;99.90;;;22.68;100.00;100848.03;5017425;28;20220;-66
2022/06/04 10:17:01;;;;;;;788.75;729.88;;;23.40;99.90;;;22.81;100.00;100828.78;5014777;28;20201;-65
2022/06/04 10:19:30;;;;;;;761.65;710.45;;;23.40;99.90;;;22.44;100.00;100803.03;5009003;28;20207;-66